createdAt,value
2019-01-31T00:01:43.591Z,13.30
2019-01-31T00:04:47.636Z,8.20
2019-01-31T00:07:35.853Z,8.57
2019-01-31T00:10:45.866Z,19.53
2019-01-31T00:13:28.631Z,28.73
2019-01-31T00:16:20.859Z,20.77
2019-01-31T00:19:16.355Z,18.60
2019-01-31T00:22:16.872Z,13.37
2019-01-31T00:25:26.854Z,7.77
2019-01-31T00:28:36.164Z,8.03
2019-01-31T00:31:17.618Z,5.87
2019-01-31T00:34:15.697Z,6.80
2019-01-31T00:37:09.698Z,9.10
2019-01-31T00:40:00.241Z,6.30
2019-01-31T00:43:07.571Z,6.87
2019-01-31T00:46:10.050Z,7.67
2019-01-31T00:49:02.718Z,6.90
2019-01-31T00:51:48.919Z,5.53
2019-01-31T00:54:39.104Z,10.27
2019-01-31T00:57:42.826Z,9.27
2019-01-31T01:00:55.701Z,7.67
2019-01-31T01:03:36.764Z,10.60
2019-01-31T01:06:50.055Z,8.87
2019-01-31T01:09:49.344Z,11.90
2019-01-31T01:13:11.815Z,12.37
2019-01-31T01:15:49.677Z,10.33
2019-01-31T01:18:49.020Z,12.90
2019-01-31T01:22:05.047Z,15.87
2019-01-31T01:25:05.308Z,9.53
2019-01-31T01:28:17.825Z,13.53
2019-01-31T01:31:30.875Z,8.43
2019-01-31T01:34:21.300Z,11.63
2019-01-31T01:36:59.040Z,8.40
2019-01-31T01:39:59.042Z,8.33
2019-01-31T01:42:49.614Z,7.80
2019-01-31T01:45:40.729Z,8.77
2019-01-31T01:48:38.297Z,10.00
2019-01-31T01:51:45.083Z,8.87
2019-01-31T01:54:48.551Z,10.50
2019-01-31T01:57:30.073Z,11.80
2019-01-31T02:00:18.738Z,8.73
2019-01-31T02:03:14.532Z,10.70
2019-01-31T02:06:04.399Z,12.37
2019-01-31T02:09:30.342Z,10.93
2019-01-31T02:12:33.620Z,7.77
2019-01-31T02:15:59.129Z,20.37
2019-01-31T02:18:49.459Z,35.40
2019-01-31T02:22:05.352Z,28.10
2019-01-31T02:24:45.482Z,19.73
2019-01-31T02:27:37.095Z,12.40
2019-01-31T02:30:55.491Z,23.43
2019-01-31T02:34:07.269Z,9.80
2019-01-31T02:37:26.689Z,17.90
2019-01-31T02:40:18.181Z,25.20
2019-01-31T02:43:08.168Z,19.07
2019-01-31T02:46:19.128Z,9.10
2019-01-31T02:49:29.356Z,7.63
2019-01-31T02:52:27.358Z,6.73
2019-01-31T02:55:22.293Z,11.57
2019-01-31T02:58:15.466Z,10.33
2019-01-31T03:01:25.875Z,11.20
2019-01-31T03:04:31.524Z,24.67
2019-01-31T03:07:25.036Z,21.53
2019-01-31T03:10:17.608Z,17.17
2019-01-31T03:13:17.080Z,16.83
2019-01-31T03:16:28.177Z,11.77
2019-01-31T03:19:49.888Z,16.30
2019-01-31T03:22:26.803Z,12.90
2019-01-31T03:25:42.291Z,18.70
2019-01-31T03:29:04.725Z,17.20
2019-01-31T03:32:12.474Z,14.63
2019-01-31T03:35:11.909Z,13.30
2019-01-31T03:38:27.193Z,15.70
2019-01-31T03:41:22.038Z,13.20
2019-01-31T03:44:15.478Z,15.63
2019-01-31T03:47:24.999Z,11.43
2019-01-31T03:50:31.592Z,11.93
2019-01-31T03:53:34.525Z,14.57
2019-01-31T03:56:48.052Z,22.73
2019-01-31T03:59:31.206Z,13.97
2019-01-31T04:02:10.306Z,8.40
2019-01-31T04:04:51.145Z,8.83
2019-01-31T04:07:20.148Z,11.33
2019-01-31T04:09:49.123Z,8.33
2019-01-31T04:12:18.046Z,8.43
2019-01-31T04:14:47.000Z,9.23
2019-01-31T04:17:15.910Z,10.13
2019-01-31T04:19:44.834Z,8.27
2019-01-31T04:22:13.941Z,7.97
2019-01-31T04:24:42.875Z,23.03
2019-01-31T04:27:11.850Z,29.93
2019-01-31T04:29:40.836Z,20.90
2019-01-31T04:32:09.755Z,14.27
2019-01-31T04:34:38.771Z,9.37
2019-01-31T04:37:07.946Z,7.47
2019-01-31T04:39:36.900Z,8.50
2019-01-31T04:42:05.924Z,9.77
2019-01-31T04:44:34.857Z,9.07
2019-01-31T04:47:03.868Z,8.57
2019-01-31T04:49:32.850Z,7.87
2019-01-31T04:52:01.800Z,8.43
2019-01-31T04:54:30.826Z,9.17
2019-01-31T04:56:59.730Z,9.23
2019-01-31T04:59:28.709Z,8.30
2019-01-31T05:01:57.749Z,8.07
2019-01-31T05:04:26.771Z,8.27
2019-01-31T05:06:55.761Z,8.80
2019-01-31T05:09:24.675Z,7.80
2019-01-31T05:11:53.688Z,9.27
2019-01-31T05:14:22.651Z,9.67
2019-01-31T05:16:51.551Z,8.97
2019-01-31T05:19:20.528Z,7.77
2019-01-31T05:21:49.629Z,8.07
2019-01-31T05:24:18.612Z,7.90
2019-01-31T05:26:47.580Z,7.57
2019-01-31T05:29:16.495Z,9.47
2019-01-31T05:31:45.456Z,7.60
2019-01-31T05:34:14.354Z,8.53
2019-01-31T05:36:43.259Z,9.40
2019-01-31T05:39:12.172Z,9.00
2019-01-31T05:41:41.071Z,10.23
2019-01-31T05:44:10.056Z,10.67
2019-01-31T05:46:39.112Z,9.30
2019-01-31T05:49:08.027Z,10.10
2019-01-31T05:51:39.216Z,10.40
2019-01-31T05:54:07.841Z,22.73
2019-01-31T05:56:36.854Z,28.70
2019-01-31T05:59:06.509Z,24.13
2019-01-31T06:01:35.571Z,12.10
2019-01-31T06:04:04.668Z,12.70
2019-01-31T06:06:33.689Z,9.97
2019-01-31T06:09:02.728Z,8.70
2019-01-31T06:11:31.694Z,8.87
2019-01-31T06:14:00.653Z,8.67
2019-01-31T06:16:29.654Z,11.07
2019-01-31T06:18:58.555Z,11.00
2019-01-31T06:21:27.475Z,11.50
2019-01-31T06:23:56.467Z,13.30
2019-01-31T06:26:25.408Z,11.03
2019-01-31T06:28:54.512Z,8.80
2019-01-31T06:31:23.510Z,12.53
2019-01-31T06:33:52.542Z,10.43
2019-01-31T06:36:21.550Z,13.40
2019-01-31T06:38:50.470Z,9.30
2019-01-31T06:41:19.379Z,9.87
2019-01-31T06:43:48.485Z,10.77
2019-01-31T06:46:17.434Z,11.70
2019-01-31T06:48:46.406Z,14.00
2019-01-31T06:51:15.365Z,12.57
2019-01-31T06:53:44.271Z,13.47
2019-01-31T06:56:13.213Z,12.20
2019-01-31T06:58:42.155Z,11.43
2019-01-31T07:01:11.252Z,10.70
2019-01-31T07:03:40.419Z,14.50
2019-01-31T07:06:09.396Z,33.33
2019-01-31T07:08:38.376Z,46.20
2019-01-31T07:11:07.393Z,39.33
2019-01-31T07:13:36.307Z,22.33
2019-01-31T07:16:05.509Z,18.37
2019-01-31T07:18:34.529Z,28.13
2019-01-31T07:21:03.557Z,40.53
2019-01-31T07:23:34.769Z,21.33
2019-01-31T07:26:03.767Z,14.20
2019-01-31T07:28:32.771Z,20.90
2019-01-31T07:31:01.727Z,20.93
2019-01-31T07:33:30.632Z,22.57
2019-01-31T07:35:59.636Z,24.57
2019-01-31T07:38:28.564Z,16.47
2019-01-31T07:40:57.544Z,16.03
2019-01-31T07:43:26.470Z,18.20
2019-01-31T07:45:55.431Z,14.77
2019-01-31T07:48:24.347Z,14.17
2019-01-31T07:50:53.284Z,21.50
2019-01-31T07:53:22.328Z,21.53
2019-01-31T07:55:51.249Z,22.90
2019-01-31T07:58:20.671Z,17.00
2019-01-31T08:00:49.815Z,21.63
2019-01-31T08:03:18.805Z,15.83
2019-01-31T08:05:47.763Z,31.87
2019-01-31T08:08:16.803Z,37.00
2019-01-31T08:10:45.789Z,16.47
2019-01-31T08:13:14.906Z,81.23
2019-01-31T08:15:43.860Z,53.17
2019-01-31T08:18:12.830Z,35.47
2019-01-31T08:20:42.022Z,26.27
2019-01-31T08:23:11.125Z,15.47
2019-01-31T08:25:40.160Z,14.97
2019-01-31T08:28:09.339Z,11.30
2019-01-31T08:30:40.642Z,11.73
2019-01-31T08:33:11.395Z,19.57
2019-01-31T08:35:45.149Z,20.30
2019-01-31T08:38:14.248Z,18.17
2019-01-31T08:40:43.235Z,12.00
2019-01-31T08:43:12.264Z,13.30
2019-01-31T08:45:41.191Z,10.47
2019-01-31T08:48:10.247Z,9.87
2019-01-31T08:50:39.510Z,7.63
2019-01-31T08:53:08.598Z,8.40
2019-01-31T08:55:37.591Z,8.33
2019-01-31T08:58:06.581Z,11.73
2019-01-31T09:00:35.889Z,10.20
2019-01-31T09:03:05.171Z,13.43
2019-01-31T09:05:42.488Z,7.60
2019-01-31T09:08:11.396Z,7.53
2019-01-31T09:10:40.702Z,10.83
2019-01-31T09:13:11.465Z,14.97
2019-01-31T09:15:40.547Z,9.10
2019-01-31T09:18:09.635Z,10.77
2019-01-31T09:20:51.721Z,12.17
2019-01-31T09:23:36.683Z,12.07
2019-01-31T09:26:48.848Z,19.53
2019-01-31T09:29:49.262Z,22.87
2019-01-31T09:33:01.363Z,9.00
2019-01-31T09:35:44.019Z,14.93
2019-01-31T09:38:40.685Z,12.63
2019-01-31T09:41:26.147Z,34.50
2019-01-31T09:44:48.616Z,18.37
2019-01-31T09:48:00.772Z,7.20
2019-01-31T09:51:07.427Z,8.30
2019-01-31T09:54:01.118Z,9.17
2019-01-31T09:56:56.762Z,9.43
2019-01-31T09:59:51.865Z,10.67
2019-01-31T10:03:08.248Z,7.27
2019-01-31T10:06:02.827Z,7.47
2019-01-31T10:09:21.378Z,8.33
2019-01-31T10:12:16.172Z,19.43
2019-01-31T10:15:09.405Z,30.73
2019-01-31T10:18:22.160Z,12.43
2019-01-31T10:21:15.798Z,31.93
2019-01-31T10:24:23.210Z,30.73
2019-01-31T10:27:09.648Z,13.80
2019-01-31T10:30:11.603Z,11.10
2019-01-31T10:33:13.452Z,16.10
2019-01-31T10:36:09.202Z,9.50
2019-01-31T10:39:08.509Z,12.20
2019-01-31T10:42:17.960Z,10.67
2019-01-31T10:45:25.883Z,29.80
2019-01-31T10:48:10.171Z,25.37
2019-01-31T10:51:29.509Z,21.57
2019-01-31T10:54:41.488Z,19.83
2019-01-31T10:57:58.807Z,31.17
2019-01-31T11:00:50.794Z,30.40
2019-01-31T11:03:57.209Z,34.80
2019-01-31T11:07:09.697Z,22.27
2019-01-31T11:09:49.544Z,38.37
2019-01-31T11:12:39.425Z,16.00
2019-01-31T11:15:28.900Z,17.33
2019-01-31T11:18:45.239Z,20.43
2019-01-31T11:22:25.907Z,12.83
2019-01-31T11:25:17.893Z,9.10
2019-01-31T11:28:22.218Z,11.87
2019-01-31T11:31:17.749Z,13.70
2019-01-31T11:34:39.233Z,8.53
2019-01-31T11:37:31.390Z,21.63
2019-01-31T11:40:33.938Z,10.00
2019-01-31T11:43:49.309Z,7.50
2019-01-31T11:46:31.519Z,10.43
2019-01-31T11:49:41.633Z,8.40
2019-01-31T11:52:42.629Z,7.57
2019-01-31T11:55:42.651Z,7.60
2019-01-31T11:58:55.259Z,7.17
2019-01-31T12:01:24.447Z,9.63
2019-01-31T12:03:59.441Z,15.13
2019-01-31T12:06:31.140Z,13.40
2019-01-31T12:09:00.192Z,15.93
2019-01-31T12:11:29.559Z,10.03
2019-01-31T12:13:58.642Z,5.67
2019-01-31T12:16:27.695Z,10.07
2019-01-31T12:18:56.604Z,5.60
2019-01-31T12:21:25.621Z,13.10
2019-01-31T12:23:55.960Z,4.47
2019-01-31T12:26:25.044Z,5.20
2019-01-31T12:28:54.279Z,3.77
2019-01-31T12:31:23.348Z,6.40
2019-01-31T12:33:52.348Z,5.40
2019-01-31T12:36:24.034Z,4.20
2019-01-31T12:38:55.005Z,9.03
2019-01-31T12:41:24.540Z,5.07
2019-01-31T12:43:53.621Z,6.53
2019-01-31T12:46:22.700Z,5.13
2019-01-31T12:48:51.655Z,2.77
2019-01-31T12:51:20.705Z,3.70
2019-01-31T12:53:49.826Z,4.17
2019-01-31T12:56:18.941Z,4.33
2019-01-31T12:58:48.191Z,5.77
2019-01-31T13:01:23.268Z,2.50
2019-01-31T13:03:54.087Z,4.67
2019-01-31T13:06:25.486Z,3.30
2019-01-31T13:08:54.470Z,4.33
2019-01-31T13:11:25.004Z,4.93
2019-01-31T13:13:54.012Z,9.30
2019-01-31T13:16:23.093Z,3.10
2019-01-31T13:18:52.036Z,6.33
2019-01-31T13:21:21.086Z,5.90
2019-01-31T13:23:50.221Z,6.80
2019-01-31T13:26:19.245Z,7.13
2019-01-31T13:28:52.283Z,3.80
2019-01-31T13:31:21.344Z,4.97
2019-01-31T13:33:50.520Z,4.43
2019-01-31T13:36:21.045Z,9.63
2019-01-31T13:38:50.007Z,7.00
2019-01-31T13:41:19.131Z,5.10
2019-01-31T13:43:57.287Z,4.10
2019-01-31T13:46:19.107Z,6.10
2019-01-31T13:48:52.028Z,5.70
2019-01-31T13:51:22.684Z,5.83
2019-01-31T13:53:53.197Z,4.53
2019-01-31T13:56:44.968Z,2.50
2019-01-31T13:59:05.105Z,4.03
2019-01-31T14:01:34.188Z,6.20
2019-01-31T14:04:03.319Z,9.30
2019-01-31T14:06:32.253Z,6.47
2019-01-31T14:09:01.241Z,3.40
2019-01-31T14:11:30.288Z,5.40
2019-01-31T14:14:08.775Z,4.73
2019-01-31T14:16:30.222Z,4.33
2019-01-31T14:18:59.193Z,7.70
2019-01-31T14:21:28.166Z,5.93
2019-01-31T14:23:57.305Z,4.07
2019-01-31T14:26:26.479Z,8.00
2019-01-31T14:28:55.493Z,10.13
2019-01-31T14:31:24.463Z,4.83
2019-01-31T14:33:53.411Z,10.60
2019-01-31T14:36:23.581Z,12.50
2019-01-31T14:38:52.490Z,13.77
2019-01-31T14:41:21.473Z,13.00
2019-01-31T14:43:50.404Z,10.00
2019-01-31T14:46:19.320Z,5.93
2019-01-31T14:48:48.344Z,4.93
2019-01-31T14:51:17.338Z,6.07
2019-01-31T14:53:46.296Z,5.37
2019-01-31T14:56:15.262Z,7.70
2019-01-31T14:58:47.348Z,7.00
2019-01-31T15:01:16.413Z,5.17
2019-01-31T15:03:45.403Z,6.17
2019-01-31T15:06:14.343Z,5.30
2019-01-31T15:08:43.316Z,7.90
2019-01-31T15:11:12.302Z,5.83
2019-01-31T15:13:41.300Z,6.10
2019-01-31T15:16:10.329Z,10.53
2019-01-31T15:18:39.352Z,7.53
2019-01-31T15:21:08.328Z,9.23
2019-01-31T15:23:37.452Z,6.47
2019-01-31T15:26:06.482Z,10.30
2019-01-31T15:28:35.515Z,13.50
2019-01-31T15:31:04.583Z,5.50
2019-01-31T15:33:33.487Z,5.37
2019-01-31T15:36:02.527Z,4.97
2019-01-31T15:38:31.457Z,4.00
2019-01-31T15:41:00.484Z,5.87
2019-01-31T15:43:29.639Z,4.70
2019-01-31T15:45:58.696Z,5.97
2019-01-31T15:48:27.937Z,8.70
2019-01-31T15:50:56.974Z,9.07
2019-01-31T15:53:25.981Z,6.87
2019-01-31T15:55:55.118Z,8.80
2019-01-31T15:58:24.396Z,5.27
2019-01-31T16:00:55.857Z,9.80
2019-01-31T16:03:26.057Z,7.87
2019-01-31T16:05:55.332Z,4.30
2019-01-31T16:08:24.608Z,4.53
2019-01-31T16:10:53.760Z,5.23
2019-01-31T16:13:22.954Z,8.53
2019-01-31T16:15:52.417Z,5.17
2019-01-31T16:18:21.668Z,6.60
2019-01-31T16:20:50.730Z,7.00
2019-01-31T16:23:20.229Z,7.30
2019-01-31T16:25:49.405Z,6.57
2019-01-31T16:28:18.499Z,5.43
2019-01-31T16:30:47.687Z,10.77
2019-01-31T16:33:16.777Z,10.07
2019-01-31T16:35:47.191Z,8.40
2019-01-31T16:38:16.369Z,5.87
2019-01-31T16:40:45.881Z,7.97
2019-01-31T16:43:15.078Z,16.57
2019-01-31T16:45:46.176Z,7.80
2019-01-31T16:48:14.891Z,5.80
2019-01-31T16:50:43.888Z,5.97
2019-01-31T16:53:12.905Z,8.93
2019-01-31T16:55:42.143Z,9.43
2019-01-31T16:58:12.215Z,7.20
2019-01-31T17:00:41.214Z,7.70
2019-01-31T17:03:12.916Z,7.93
2019-01-31T17:05:41.085Z,6.57
2019-01-31T17:08:10.137Z,8.03
2019-01-31T17:10:39.322Z,7.83
2019-01-31T17:13:08.439Z,8.53
2019-01-31T17:15:37.341Z,8.83
2019-01-31T17:18:07.741Z,9.73
2019-01-31T17:20:39.529Z,8.30
2019-01-31T17:23:08.548Z,9.10
2019-01-31T17:25:38.000Z,9.00
2019-01-31T17:28:07.211Z,9.50
2019-01-31T17:30:36.188Z,12.33
2019-01-31T17:33:05.761Z,6.57
2019-01-31T17:35:34.803Z,7.33
2019-01-31T17:38:04.160Z,11.23
2019-01-31T17:40:35.759Z,10.63
2019-01-31T17:43:05.264Z,10.30
2019-01-31T17:45:34.176Z,7.80
2019-01-31T17:48:03.309Z,13.20
2019-01-31T17:50:32.337Z,8.37
2019-01-31T17:53:01.333Z,9.90
2019-01-31T17:55:30.564Z,8.70
2019-01-31T17:58:06.006Z,11.17
2019-01-31T18:00:44.115Z,12.10
2019-01-31T18:03:13.256Z,14.73
2019-01-31T18:05:42.519Z,11.57
2019-01-31T18:08:11.814Z,39.70
2019-01-31T18:10:40.822Z,23.20
2019-01-31T18:13:09.890Z,37.23
2019-01-31T18:15:41.994Z,18.00
2019-01-31T18:18:09.819Z,14.10
2019-01-31T18:20:38.962Z,20.10
2019-01-31T18:23:07.963Z,12.23
2019-01-31T18:25:36.947Z,15.07
2019-01-31T18:28:06.008Z,9.70
2019-01-31T18:30:35.199Z,17.33
2019-01-31T18:33:04.664Z,19.57
2019-01-31T18:35:33.757Z,20.57
2019-01-31T18:38:02.800Z,15.43
2019-01-31T18:40:32.554Z,25.53
2019-01-31T18:43:01.713Z,17.50
2019-01-31T18:45:31.641Z,28.33
2019-01-31T18:48:01.443Z,31.30
2019-01-31T18:50:35.286Z,50.60
2019-01-31T18:53:12.931Z,37.10
2019-01-31T18:55:42.046Z,26.70
2019-01-31T18:58:11.141Z,33.23
2019-01-31T19:00:48.697Z,28.93
2019-01-31T19:03:18.256Z,28.30
2019-01-31T19:05:47.407Z,23.93
2019-01-31T19:08:19.204Z,33.27
2019-01-31T19:10:48.224Z,24.27
2019-01-31T19:13:17.216Z,22.63
2019-01-31T19:15:46.627Z,22.70
2019-01-31T19:18:15.673Z,22.43
2019-01-31T19:20:44.758Z,20.83
2019-01-31T19:23:14.059Z,23.10
2019-01-31T19:25:43.157Z,45.93
2019-01-31T19:28:13.294Z,47.33
2019-01-31T19:30:42.628Z,51.30
2019-01-31T19:33:11.737Z,40.60
2019-01-31T19:35:41.005Z,45.90
2019-01-31T19:38:14.189Z,24.97
2019-01-31T19:40:45.532Z,25.50
2019-01-31T19:43:14.968Z,25.47
2019-01-31T19:45:46.264Z,34.00
2019-01-31T19:48:15.584Z,32.70
2019-01-31T19:50:44.676Z,70.53
2019-01-31T19:53:15.361Z,69.93
2019-01-31T19:55:44.453Z,48.57
2019-01-31T19:58:13.467Z,42.57
2019-01-31T20:00:42.473Z,41.77
2019-01-31T20:03:11.699Z,35.43
2019-01-31T20:05:40.934Z,41.33
2019-01-31T20:08:11.572Z,45.33
2019-01-31T20:10:40.706Z,43.23
2019-01-31T20:13:09.856Z,41.73
2019-01-31T20:15:39.038Z,55.67
2019-01-31T20:18:08.867Z,95.83
2019-01-31T20:20:37.970Z,90.23
2019-01-31T20:23:10.841Z,90.83
2019-01-31T20:25:38.780Z,57.17
2019-01-31T20:28:07.962Z,32.27
2019-01-31T20:30:48.471Z,47.83
2019-01-31T20:33:17.334Z,40.63
2019-01-31T20:35:46.416Z,42.93
2019-01-31T20:38:15.400Z,46.07
2019-01-31T20:40:44.527Z,60.07
2019-01-31T20:43:13.498Z,36.07
2019-01-31T20:45:42.612Z,31.57
2019-01-31T20:48:11.681Z,34.20
2019-01-31T20:50:43.752Z,33.83
2019-01-31T20:53:12.802Z,32.10
2019-01-31T20:55:42.107Z,34.07
2019-01-31T20:58:11.107Z,28.33
2019-01-31T21:00:44.928Z,33.00
2019-01-31T21:03:14.000Z,33.00
2019-01-31T21:05:43.231Z,27.77
2019-01-31T21:08:13.745Z,27.57
2019-01-31T21:10:42.850Z,27.60
2019-01-31T21:13:12.321Z,30.03
2019-01-31T21:15:41.383Z,26.83
2019-01-31T21:18:10.663Z,32.90
2019-01-31T21:20:40.153Z,31.37
2019-01-31T21:23:09.897Z,32.33
2019-01-31T21:25:39.048Z,33.40
2019-01-31T21:28:08.244Z,31.13
2019-01-31T21:30:39.902Z,34.37
2019-01-31T21:33:09.014Z,29.77
2019-01-31T21:35:38.249Z,30.33
2019-01-31T21:38:07.324Z,32.80
2019-01-31T21:40:37.671Z,38.53
2019-01-31T21:43:07.100Z,32.87
2019-01-31T21:45:36.497Z,34.97
2019-01-31T21:48:07.480Z,32.80
2019-01-31T21:50:36.672Z,38.83
2019-01-31T21:53:06.265Z,38.23
2019-01-31T21:55:35.376Z,29.83
2019-01-31T21:58:04.729Z,31.37
2019-01-31T22:00:34.676Z,36.57
2019-01-31T22:03:04.760Z,38.03
2019-01-31T22:05:33.998Z,34.87
2019-01-31T22:08:02.988Z,36.40
2019-01-31T22:10:34.649Z,33.73
2019-01-31T22:13:03.656Z,35.07
2019-01-31T22:15:34.011Z,37.93
2019-01-31T22:18:06.563Z,40.03
2019-01-31T22:20:35.718Z,44.23
2019-01-31T22:23:04.872Z,39.80
2019-01-31T22:25:33.956Z,35.20
2019-01-31T22:28:03.085Z,44.90
2019-01-31T22:30:34.160Z,43.20
2019-01-31T22:33:03.281Z,41.70
2019-01-31T22:35:32.289Z,40.80
2019-01-31T22:38:01.381Z,39.87
2019-01-31T22:40:30.437Z,47.43
2019-01-31T22:42:59.465Z,41.83
2019-01-31T22:45:28.567Z,46.40
2019-01-31T22:47:57.551Z,40.33
2019-01-31T22:50:26.747Z,45.50
2019-01-31T22:52:55.747Z,40.63
2019-01-31T22:55:25.574Z,40.43
2019-01-31T22:57:54.664Z,45.10
2019-01-31T23:01:21.461Z,43.63
2019-01-31T23:03:50.633Z,50.07
2019-01-31T23:06:19.667Z,43.00
2019-01-31T23:08:48.634Z,45.90
2019-01-31T23:11:17.699Z,48.13
2019-01-31T23:13:46.721Z,46.83
2019-01-31T23:16:15.828Z,44.50
2019-01-31T23:18:44.752Z,46.47
2019-01-31T23:21:14.092Z,46.10
2019-01-31T23:23:43.022Z,48.43
2019-01-31T23:26:12.088Z,46.00
2019-01-31T23:28:41.145Z,48.93
2019-01-31T23:31:10.392Z,52.93
2019-01-31T23:33:41.220Z,45.90
2019-01-31T23:36:10.262Z,48.90
2019-01-31T23:38:39.325Z,56.83
2019-01-31T23:41:08.280Z,56.43
2019-01-31T23:43:37.380Z,55.07
2019-01-31T23:46:06.512Z,59.23
2019-01-31T23:48:35.520Z,50.20
2019-01-31T23:51:04.804Z,52.70
2019-01-31T23:53:36.657Z,55.03
2019-01-31T23:56:06.094Z,56.63
2019-01-31T23:58:35.121Z,50.00
